John P. Tully — CG2958 — position and weather

sailwx.info

Track history (hours):
 
Tides and Currents Weather Stations Pressure Air Temp Water Temp Dewpoint Dewpoint Depression Visibility Wind Speed Wind Dir Waves Ship Positions

Oceanographic research ship John P. Tully (Canada)

Detailed information on ship capabilities available from University of Delaware's Ocean Information Center.

Last reported at 2017-Mar-26 06:00 UTC. Time now 2017-Mar-26 07:14 UTC.
Position N 50°30' W 126°36'.

Length 68.9 m; beam 14.5 m; draft 4.5 m.

MMSI: 316114000.

Wind from 130 at 6 knots

Barometer 1013.4 mb
Air temperature 7.1 ° C
Dewpoint 0.4 ° C

Date/timePositionNaut miles runAvg speedWind from/ knotsBaromVisibWave heightAir tempDewpointWater temp
2017-Mar-26 06:00N 50°30' W 126°36'7 7.1 130 / 61013.4 7.1 0.4
2017-Mar-26 05:00N 50°36' W 126°42'713.8 110 / 121013.9 6.7 1.7
2017-Mar-26 04:31N 50°40' W 126°51'3 5.9
2017-Mar-26 04:00N 50°42' W 126°54'816.6 080 / 151014.2 6.1 3.3
2017-Mar-26 03:32N 50°43' W 127°06'4 7.5
2017-Mar-26 03:00N 50°42' W 127°12'716.6 150 / 131015.2 7.0 1.0
2017-Mar-26 02:33N 50°46' W 127°22'611.1
2017-Mar-26 02:00N 50°42' W 127°30'2 4.4 110 / 21016.4 5.9 3.3
2017-Mar-26 01:32N 50°43' W 127°28'2 3.7
2017-Mar-26 01:00N 50°42' W 127°30'2 4.4 100 / 11016.7 6.5 2.9
2017-Mar-26 00:32N 50°43' W 127°28'2 3.7
2017-Mar-26 00:00N 50°42' W 127°30'2 4.4 110 / 21017.2 6.8 2.3
2017-Mar-25 23:32N 50°43' W 127°28'2 3.7
2017-Mar-25 23:00N 50°42' W 127°30'2 4.4 100 / 21017.6 6.6 3.6
2017-Mar-25 22:32N 50°43' W 127°28'2 3.7
2017-Mar-25 22:00N 50°42' W 127°30'2 2.2 090 / 21018.3 4.9 2.1
2017-Mar-25 21:05N 50°43' W 127°28'222.0
2017-Mar-25 21:00N 50°42' W 127°30'1 2.9 180 / 31017.6 6.6 2.2
2017-Mar-25 20:29N 50°43' W 127°29'1 2.9
2017-Mar-25 20:00N 50°42' W 127°30'0 0.0 170 / 91017.4 7.1 1.2
2017-Mar-25 19:00N 50°42' W 127°30'0 0.0 170 / 61017.6 6.1 2.4
2017-Mar-25 18:00N 50°42' W 127°30'0 0.0 190 / 51017.4 5.2 3.3
2017-Mar-25 17:00N 50°42' W 127°30'0 0.0 170 / 41017.1 4.9 3.3
2017-Mar-25 16:00N 50°42' W 127°30'1 2.4 190 / 31016.7 4.0 3.3
2017-Mar-25 15:23N 50°43' W 127°29'1 3.6
2017-Mar-25 15:00N 50°42' W 127°30'3 5.9 260 / 41016.0 2.9 2.4
2017-Mar-25 14:32N 50°45' W 127°28'4 6.9
2017-Mar-25 14:00N 50°48' W 127°30'2 5.3 200 / 71015.7 3.8 2.1
2017-Mar-25 13:33N 50°47' W 127°27'2 3.8
2017-Mar-25 13:00N 50°48' W 127°24'1 2.3 200 / 101015.6 4.3 2.7
2017-Mar-25 12:33N 50°48' W 127°25'1 1.8
2017-Mar-25 12:00N 50°48' W 127°24'2 3.5 210 / 71014.6 4.1 2.3
2017-Mar-25 11:33N 50°47' W 127°26'2 2.8
2017-Mar-25 11:00N 50°48' W 127°24'1 2.8 200 / 141013.8 4.8 2.8
2017-Mar-25 10:33N 50°47' W 127°26'1 2.2
2017-Mar-25 10:00N 50°48' W 127°24'2 4.0 200 / 91013.0 5.5 4.3
2017-Mar-25 09:33N 50°49' W 127°26'5 9.6
2017-Mar-25 09:00N 50°54' W 127°30'511.2 230 / 61011.8 6.2 3.6
2017-Mar-25 08:33N 50°54' W 127°38'3 4.9
2017-Mar-25 08:00N 50°54' W 127°42'817.7 230 / 151009.4 6.4 4.4
2017-Mar-25 07:31N 51°02' W 127°47'4 8.2
2017-Mar-25 07:00N 51°06' W 127°48'511.7 260 / 171007.9 6.8 4.8
2017-Mar-25 06:33N 51°10' W 127°52'813.7
2017-Mar-25 06:00N 51°18' W 127°54'2 3.5 220 / 181005.8 6.7 5.3
2017-Mar-25 05:33N 51°19' W 127°52'5 8.9
2017-Mar-25 05:00N 51°24' W 127°54'3 6.2 190 / 181005.1 7.2 6.5
2017-Mar-25 04:31N 51°27' W 127°51'4 7.4
2017-Mar-25 04:00N 51°30' W 127°54'6 6.0 200 / 201004.1 7.2 6.7
2017-Mar-25 03:00N 51°36' W 127°54'0 0.0 180 / 221003.0 7.3 6.7
2017-Mar-25 02:00N 51°36' W 127°54'6 6.0 170 / 261001.8 7.9 6.4
2017-Mar-25 01:00N 51°42' W 127°54'6 6.0 170 / 251000.7 7.9 6.2
2017-Mar-25 00:00N 51°48' W 127°54'6 6.0 160 / 21999.9 9.4 5.0
2017-Mar-24 23:00N 51°54' W 127°54'1212.0 180 / 12999.7 9.2 4.9
2017-Mar-24 22:00N 52°06' W 127°54'1212.0 360 / 15999.9 7.9 4.1
2017-Mar-24 21:00N 52°18' W 127°54'1111.0 310 / 2999.7 7.2 4.4
2017-Mar-24 20:00N 52°18' W 128°12'7 7.3 090 / 41000.0 6.8 5.0
2017-Mar-24 19:00N 52°18' W 128°24'9 9.5 110 / 91000.1 6.4 4.2
2017-Mar-24 18:00N 52°12' W 128°36'9 9.5 110 / 12999.5 7.0 4.2
2017-Mar-24 17:00N 52°18' W 128°48'7 7.0 110 / 12999.7 6.6 4.4
2017-Mar-24 16:00N 52°24' W 128°54'1212.0 090 / 11999.3 6.4 4.4
2017-Mar-24 15:00N 52°36' W 128°54'9 9.4 070 / 12999.6 6.4 3.9
2017-Mar-24 14:00N 52°42' W 129°06'1414.0 150 / 18999.5 7.7 4.3
2017-Mar-24 13:00N 52°54' W 129°18'9 9.4 080 / 13999.7 6.5 4.4
2017-Mar-24 12:00N 53°00' W 129°30'1312.5 110 / 151000.2 7.5 3.6
2017-Mar-24 11:00N 53°12' W 129°36'9 9.4 080 / 25999.9 5.4 3.3
2017-Mar-24 10:00N 53°18' W 129°48'7 7.0 090 / 221000.6 5.1 3.3
2017-Mar-24 09:00N 53°24' W 129°54'9 9.3 110 / 151001.4 4.9 2.8
2017-Mar-24 08:00N 53°30' W 130°06'9 9.3 130 / 141001.5 4.7 2.9
2017-Mar-24 07:00N 53°36' W 130°18'9 9.3 110 / 131001.7 4.6 3.5
2017-Mar-24 06:00N 53°42' W 130°30'9 9.3 070 / 141002.0 5.1 3.4
2017-Mar-24 05:00N 53°48' W 130°42'9 9.3 060 / 151003.5 4.4 2.9
2017-Mar-24 04:00N 53°54' W 130°54'9 9.3 060 / 151004.3 4.3 2.3
2017-Mar-24 03:00N 54°00' W 131°06'7 7.0 070 / 181005.1 5.4 2.5
2017-Mar-24 02:00N 54°06' W 131°12'9 9.2 100 / 201005.4 5.9 1.8
2017-Mar-24 01:00N 54°12' W 131°24'1212.1 100 / 121006.6 6.0 2.4
2017-Mar-24 00:00N 54°18' W 131°42'7 7.0 110 / 151007.2 5.3 3.1
2017-Mar-23 23:00N 54°18' W 131°54'1110.5 130 / 171007.4 5.7 2.8
2017-Mar-23 22:00N 54°18' W 132°12'1110.5 120 / 151007.7 5.8 2.1
2017-Mar-23 21:00N 54°18' W 132°30'9 9.2 120 / 131008.1 5.3 1.4
2017-Mar-23 20:00N 54°24' W 132°42'7 7.0 140 / 161007.9 4.7 1.1
2017-Mar-23 19:00N 54°24' W 132°54'1413.9 130 / 111008.2 5.2 1.5
2017-Mar-23 18:00N 54°12' W 132°42'7 7.0 140 / 101008.0 4.4 1.4
2017-Mar-23 17:00N 54°12' W 132°30'1110.5 170 / 71007.9 3.1 0.3
2017-Mar-23 16:00N 54°12' W 132°12'1110.5 180 / 91007.5 2.4 0.7
2017-Mar-23 15:00N 54°12' W 131°54'7 7.0 210 / 71007.3 2.5 0.6
2017-Mar-23 14:00N 54°06' W 131°48'0 0.0 200 / 71007.0 1.8 1.1
2017-Mar-23 13:00N 54°06' W 131°48'0 0.0 200 / 61006.3 2.6 2.0
2017-Mar-23 12:00N 54°06' W 131°48'0 0.0 140 / 31005.8 2.3 1.6
2017-Mar-23 11:00N 54°06' W 131°48'0 0.0 130 / 71005.3 2.6 1.5
2017-Mar-23 10:00N 54°06' W 131°48'0 0.0 140 / 91004.8 3.0 1.9
2017-Mar-23 09:00N 54°06' W 131°48'0 0.0 130 / 61004.4 3.7 1.9
2017-Mar-23 08:00N 54°06' W 131°48'0 0.0 130 / 51004.0 3.6 1.6
2017-Mar-23 07:00N 54°06' W 131°48'0 0.0 170 / 81003.6 3.4 0.6
2017-Mar-23 06:00N 54°06' W 131°48'0 0.0 160 / 71003.3 3.6 1.2
2017-Mar-23 05:00N 54°06' W 131°48'0 0.0 140 / 101002.9 3.2 1.2
2017-Mar-23 04:00N 54°06' W 131°48'0 0.0 160 / 141002.4 3.5 1.2
2017-Mar-23 03:00N 54°06' W 131°48'1312.5 170 / 151001.4 4.6 1.4
2017-Mar-23 02:00N 54°18' W 131°42'7 6.9 190 / 91000.8 3.9 2.1
2017-Mar-23 01:00N 54°24' W 131°36'0 0.0 220 / 161000.2 4.2 2.5
2017-Mar-23 00:00N 54°24' W 131°36'7 6.9 140 / 161000.2 5.4 3.6
2017-Mar-22 23:00N 54°18' W 131°30'0 0.0 160 / 101000.3 4.9 2.7
2017-Mar-22 22:00N 54°18' W 131°30'0 0.0 140 / 9999.8 5.3 3.8
2017-Mar-22 21:00N 54°18' W 131°30'4 3.5 150 / 71000.0 5.1 2.9
2017-Mar-22 20:00N 54°18' W 131°24'4 3.5 160 / 8999.4 4.1 2.6
2017-Mar-22 19:00N 54°18' W 131°18'7 6.9 160 / 7999.2 3.8 2.4
2017-Mar-22 18:00N 54°12' W 131°12'9 9.2 100 / 5998.9 3.1 1.8
2017-Mar-22 17:00N 54°06' W 131°00'1413.9 280 / 1998.7 3.1 1.9
2017-Mar-22 16:00N 53°54' W 130°48'4 3.5 340 / 2998.4 2.6 1.9
2017-Mar-22 15:00N 53°54' W 130°42'4 3.5 290 / 4998.3 3.0 1.9
2017-Mar-22 14:00N 53°54' W 130°48'4 3.5 320 / 6998.2 3.1 1.8
2017-Mar-22 13:00N 53°54' W 130°54'6 6.0 310 / 2998.2 3.3 1.9
2017-Mar-22 12:00N 53°48' W 130°54'7 7.0 020 / 2998.5 3.7 2.6
2017-Mar-22 11:00N 53°42' W 130°48'6 6.0 070 / 5998.9 4.1 3.2
2017-Mar-22 10:00N 53°36' W 130°48'7 7.0 080 / 5999.3 4.0 3.1
2017-Mar-22 09:00N 53°30' W 130°42'1212.0 050 / 5999.3 3.8 2.9
2017-Mar-22 08:00N 53°18' W 130°42'7 7.0 050 / 7999.6 3.9 2.8
2017-Mar-22 07:00N 53°12' W 130°36'7 7.0 050 / 61000.0 4.2 2.4
2017-Mar-22 06:00N 53°06' W 130°30'1212.0 060 / 71000.2 4.3 2.7
2017-Mar-22 05:00N 52°54' W 130°30'7 7.0 050 / 91000.0 4.4 2.8
2017-Mar-22 04:00N 52°48' W 130°36'7 7.0 060 / 71000.6 4.4 2.8
2017-Mar-22 03:00N 52°42' W 130°42'7 7.0 040 / 81000.7 4.3 2.2
2017-Mar-22 02:00N 52°36' W 130°48'1312.5 050 / 101000.8 4.3 2.5
2017-Mar-22 01:00N 52°24' W 130°54'1111.0 060 / 81001.5 4.3 2.4
2017-Mar-22 00:00N 52°24' W 131°12'6 6.0 110 / 81002.2 5.2 2.7
2017-Mar-21 23:00N 52°18' W 131°12'0 0.0 360 / 81002.4 5.4 3.3
2017-Mar-21 22:00N 52°18' W 131°12'7 7.3 360 / 71003.0 5.3 3.0
2017-Mar-21 21:00N 52°18' W 131°00'7 7.0 360 / 131002.9 5.2 3.5
2017-Mar-21 20:00N 52°12' W 130°54'6 6.0 350 / 161002.7 5.2 3.5
2017-Mar-21 19:00N 52°06' W 130°54'6 6.0 360 / 201003.1 5.1 3.4
2017-Mar-21 18:00N 52°12' W 130°54'0 0.0 010 / 171003.9 5.2 3.4
2017-Mar-21 17:00N 52°12' W 130°54'7 7.0 350 / 191004.3 5.4 3.8
2017-Mar-21 16:00N 52°06' W 130°48'0 0.0 350 / 221004.0 5.5 3.8
2017-Mar-21 15:00N 52°06' W 130°48'0 0.0 350 / 201005.3 5.6 4.1
2017-Mar-21 14:00N 52°06' W 130°48'0 0.0 350 / 211005.9 5.5 3.9
2017-Mar-21 13:00N 52°06' W 130°48'0 0.0 360 / 201007.1 5.5 4.1
2017-Mar-21 12:00N 52°06' W 130°48'7 7.0 350 / 191007.9 5.6 4.2
2017-Mar-21 11:00N 52°12' W 130°42'4 3.7 360 / 161009.0 6.3 3.9
2017-Mar-21 10:00N 52°12' W 130°36'7 7.0 360 / 131010.2 6.4 3.7
2017-Mar-21 09:00N 52°18' W 130°30'0 0.0 360 / 131010.8 6.5 3.8
2017-Mar-21 08:00N 52°18' W 130°30'0 0.0 360 / 141011.4 6.3 2.7
2017-Mar-21 07:00N 52°18' W 130°30'0 0.0 350 / 171011.9 6.1 2.1
2017-Mar-21 06:00N 52°18' W 130°30'0 0.0 350 / 171012.8 6.0 1.1
2017-Mar-21 05:00N 52°18' W 130°30'0 0.0 350 / 161013.1 5.9 1.6
2017-Mar-21 04:00N 52°18' W 130°30'6 6.0 350 / 161013.7 5.8 1.1
2017-Mar-21 03:00N 52°12' W 130°30'7 7.0 360 / 151013.7 5.8 1.2
2017-Mar-21 02:00N 52°06' W 130°36'1212.0 360 / 161014.1 5.7 1.1
2017-Mar-21 01:00N 51°54' W 130°36'0 0.0 010 / 191014.3 5.7 1.6
2017-Mar-21 00:00N 51°54' W 130°36'4 3.7 010 / 171015.9 6.2 2.0
2017-Mar-20 23:00N 51°54' W 130°42'10 9.5 020 / 201015.9 5.5 1.5
2017-Mar-20 22:00N 51°48' W 130°54'7 7.1 020 / 191017.6 5.8 2.0
2017-Mar-20 21:00N 51°54' W 130°48'6 6.0 020 / 151018.8 5.6 1.6
2017-Mar-20 20:00N 52°00' W 130°48'1212.0 010 / 141019.9 5.5 0.9
2017-Mar-20 19:00N 52°12' W 130°48'7 7.0 010 / 121020.7 5.3 1.2
2017-Mar-20 18:00N 52°18' W 130°54'1414.1 030 / 121021.3 5.1 1.1
2017-Mar-20 17:00N 52°30' W 131°06'7 7.0 030 / 111022.1 4.9 1.8
2017-Mar-20 16:00N 52°36' W 131°12'7 7.0 060 / 111022.7 5.1 0.8
2017-Mar-20 15:00N 52°42' W 131°18'4 3.6 050 / 101023.5 4.2 1.9
2017-Mar-20 14:00N 52°42' W 131°12'7 7.3 350 / 111023.9 4.8 2.9
2017-Mar-20 13:00N 52°42' W 131°00'4 3.6 080 / 21024.6 5.3 0.7
2017-Mar-20 12:00N 52°42' W 130°54'7 7.3 130 / 41025.3 5.4 0.4
2017-Mar-20 11:00N 52°42' W 130°42'7 7.0 120 / 71025.9 5.3 1.3
2017-Mar-20 10:00N 52°48' W 130°36'6 6.0 110 / 111026.1 5.2 1.1
2017-Mar-20 09:00N 52°54' W 130°36'4 3.6 150 / 81026.4 5.6 0.4
2017-Mar-20 08:00N 52°54' W 130°30'1212.0 160 / 91026.6 5.6 0.8
2017-Mar-20 07:00N 53°06' W 130°30'4 3.6 180 / 121026.7 5.9 1.6
2017-Mar-20 06:00N 53°06' W 130°36'6 6.0 160 / 81026.6 5.9 1.4
2017-Mar-20 05:00N 53°12' W 130°36'7 7.0 170 / 81026.4 5.8 1.4
2017-Mar-20 04:00N 53°18' W 130°42'6 6.0 210 / 71026.2 5.7 1.6
2017-Mar-20 03:00N 53°24' W 130°42'1212.0 240 / 81025.8 5.2 2.4
2017-Mar-20 02:00N 53°36' W 130°42'7 7.1 140 / 141024.8 5.5 1.6
2017-Mar-20 01:00N 53°36' W 130°54'7 7.1 190 / 171025.1 5.8 2.4
2017-Mar-20 00:00N 53°36' W 131°06'9 9.3 140 / 141025.2 6.5 1.8
2017-Mar-19 23:00N 53°30' W 130°54'9 9.3 150 / 131025.2 6.9 1.1
2017-Mar-19 22:00N 53°24' W 130°42'1414.0 150 / 111025.1 6.2 0.4
2017-Mar-19 21:00N 53°12' W 130°30'9 9.4 160 / 91025.0 5.8 0.3
2017-Mar-19 20:00N 53°06' W 130°18'9 9.4 160 / 41024.4 5.3-0.4
2017-Mar-19 19:00N 53°00' W 130°06'9 9.4 090 / 51023.8 5.1 1.1
2017-Mar-19 18:00N 52°54' W 129°54'7 7.0 350 / 21022.8 5.0-0.4
2017-Mar-19 17:00N 52°48' W 129°48'4 3.6 320 / 71021.5 5.1 0.4
2017-Mar-19 16:00N 52°48' W 129°42'9 9.4 300 / 101020.1 5.0 0.7
2017-Mar-19 15:00N 52°54' W 129°30'4 3.6 290 / 151018.6 4.7 0.5
2017-Mar-19 14:00N 52°54' W 129°24'7 7.0 300 / 171017.2 4.0 1.5
2017-Mar-19 13:00N 53°00' W 129°18'7 7.0 280 / 161015.4 3.9 1.6
2017-Mar-19 12:00N 53°06' W 129°12'7 7.0 220 / 231013.0 5.6 0.5
2017-Mar-19 11:00N 53°12' W 129°06'6 6.0 200 / 221012.3 5.2 1.2
2017-Mar-19 10:00N 53°18' W 129°06'7 7.0 170 / 101012.0 3.8 1.3
2017-Mar-19 09:00N 53°24' W 129°12'0 0.0 200 / 161011.0 3.0 1.1
2017-Mar-19 08:00N 53°24' W 129°12'0 0.0 170 / 171011.1 3.9 0.8
2017-Mar-19 07:00N 53°24' W 129°12'0 0.0 160 / 161011.4 3.6 1.1
2017-Mar-19 06:00N 53°24' W 129°12'0 0.0 180 / 161010.5 3.5 1.1
2017-Mar-19 05:00N 53°24' W 129°12'0 0.0 160 / 191009.9 2.2 1.3
2017-Mar-19 04:00N 53°24' W 129°12'0 0.0 160 / 191009.3 1.7 1.2
2017-Mar-19 03:00N 53°24' W 129°12'0 0.0 180 / 161009.3 4.2-1.3
2017-Mar-19 02:00N 53°24' W 129°12'6 6.0 190 / 151009.0 4.4-0.7
2017-Mar-19 01:00N 53°18' W 129°12'7 7.2 170 / 121008.8 4.6 0.3
2017-Mar-19 00:00N 53°18' W 129°00'7 7.0 010 / 41008.6 2.8 0.6
2017-Mar-18 23:00N 53°24' W 128°54'6 6.0 160 / 181005.8 2.8 0.6
2017-Mar-18 22:00N 53°30' W 128°54'4 3.6 020 / 41007.1 2.1 0.6
2017-Mar-18 21:00N 53°30' W 128°48'0 0.0 330 / 21006.5 2.2 1.3
2017-Mar-18 20:00N 53°30' W 128°48'0 0.0 150 / 11005.8 2.3 0.7
2017-Mar-18 19:00N 53°30' W 128°48'0 0.0 1005.6 2.5 0.8
2017-Mar-18 18:00N 53°30' W 128°48'4 3.6 070 / 21005.4 1.2 0.5
2017-Mar-18 17:00N 53°30' W 128°54'7 7.1 260 / 31004.6 1.6 0.4
2017-Mar-18 16:00N 53°30' W 129°06'7 7.0 300 / 61003.9 1.4-0.4
2017-Mar-18 15:00N 53°24' W 129°12'0 0.0 110 / 71003.6 2.6-0.7
2017-Mar-18 14:00N 53°24' W 129°12'0 0.0 180 / 101003.7 2.7 0.2
2017-Mar-18 13:00N 53°24' W 129°12'0 0.0 180 / 101003.4 2.3 0.6
2017-Mar-18 12:00N 53°24' W 129°12'0 0.0 170 / 101003.1 1.5 0.7
2017-Mar-18 11:00N 53°24' W 129°12'0 0.0 160 / 111003.0 1.8 0.3
2017-Mar-18 10:00N 53°24' W 129°12'0 0.0 170 / 31003.3 2.7 0.1
2017-Mar-18 09:00N 53°24' W 129°12'0 0.0 160 / 61003.8 2.7 0.1
2017-Mar-18 08:00N 53°24' W 129°12'0 0.0 280 / 31004.1 1.5 0.5
2017-Mar-18 07:00N 53°24' W 129°12'0 0.0 220 / 31004.1 1.4 0.4
2017-Mar-18 06:00N 53°24' W 129°12'0 0.0 170 / 71004.2 1.7 0.1
2017-Mar-18 05:00N 53°24' W 129°12'0 0.0 200 / 51004.5 1.2 0.7
2017-Mar-18 04:00N 53°24' W 129°12'0 0.0 150 / 31004.7 1.1 0.1
2017-Mar-18 03:00N 53°24' W 129°12'6 6.0 160 / 151004.7 2.0 0.7
2017-Mar-18 02:00N 53°18' W 129°12'7 7.0 140 / 131005.0 3.8 0.3
2017-Mar-18 01:00N 53°12' W 129°06'6 6.0 100 / 131005.4 1.8 1.0
2017-Mar-18 00:00N 53°18' W 129°06'6 6.0 050 / 21005.7 2.1 1.0
2017-Mar-17 23:00N 53°12' W 129°06'7 7.0 210 / 121005.8 1.9 0.8
2017-Mar-17 22:00N 53°06' W 129°12'1312.5 160 / 161006.0 4.3 1.6
2017-Mar-17 21:00N 52°54' W 129°18'9 9.4 150 / 121006.6 3.7 2.3
2017-Mar-17 20:00N 53°00' W 129°30'1312.5 160 / 111007.0 2.6 2.0
2017-Mar-17 19:00N 53°12' W 129°36'7 7.0 190 / 81006.4 1.6 1.2
2017-Mar-17 18:00N 53°18' W 129°42'9 9.3 130 / 101006.6 3.6 1.4
2017-Mar-17 17:00N 53°24' W 129°54'7 7.0 150 / 131006.3 2.9 1.1
2017-Mar-17 16:00N 53°30' W 130°00'0 0.0 130 / 101007.4 2.8 1.4
2017-Mar-17 15:00N 53°30' W 130°00'0 0.0 120 / 91007.1 2.7 1.4
2017-Mar-17 14:00N 53°30' W 130°00'0 0.0 150 / 71006.9 2.9 1.6
2017-Mar-17 13:00N 53°30' W 130°00'0 0.0 170 / 41006.9 2.5 1.3
2017-Mar-17 12:00N 53°30' W 130°00'0 0.0 160 / 101006.7 4.4 1.8
2017-Mar-17 11:00N 53°30' W 130°00'0 0.0 140 / 141006.9 3.9 2.4
2017-Mar-17 10:00N 53°30' W 130°00'0 0.0 140 / 141007.4 3.0 1.8
2017-Mar-17 09:00N 53°30' W 130°00'0 0.0 140 / 161008.1 4.1 2.4
2017-Mar-17 08:00N 53°30' W 130°00'0 0.0 160 / 131009.5 3.6 2.2
2017-Mar-17 07:00N 53°30' W 130°00'0 0.0 130 / 221008.9 3.1 2.0
2017-Mar-17 06:00N 53°30' W 130°00'0 0.0 120 / 171009.7 2.6 1.6
2017-Mar-17 05:00N 53°30' W 130°00'0 0.0 150 / 151010.0 2.5 1.7
2017-Mar-17 04:00N 53°30' W 130°00'0 0.0 140 / 121010.6 3.2 2.3
2017-Mar-17 03:00N 53°30' W 130°00'0 0.0 170 / 81011.2 2.1 1.6
2017-Mar-17 02:00N 53°30' W 130°00'0 0.0 110 / 91011.3 1.4 1.0
2017-Mar-17 01:00N 53°30' W 130°00'0 0.0 170 / 111012.0 3.0 2.0
2017-Mar-17 00:00N 53°30' W 130°00'0 0.0 130 / 191012.7 2.3 1.3
2017-Mar-16 23:00N 53°30' W 130°00'0 0.0 150 / 161013.3 3.3 1.9
2017-Mar-16 22:00N 53°30' W 130°00'0 0.0 120 / 131013.5 4.0 1.1
2017-Mar-16 21:00N 53°30' W 130°00'0 0.0 140 / 241014.1 3.6 1.3
2017-Mar-16 20:00N 53°30' W 130°00'0 0.0 110 / 91014.3 3.4 1.5
2017-Mar-16 19:00N 53°30' W 130°00'0 0.0 130 / 181013.7 3.9 1.2
2017-Mar-16 18:00N 53°30' W 130°00'145190.2 120 / 81013.6 3.9 1.6
2017-Mar-16 17:14N 51°29' W 127°51'145605.0
2017-Mar-16 17:00N 53°30' W 130°00'153181.6 130 / 121013.0 3.1 1.2
2017-Mar-16 16:09N 51°18' W 127°53'153983.8
2017-Mar-16 16:00N 53°30' W 130°00'159362.3 140 / 91012.3 3.2 1.2
2017-Mar-16 15:33N 51°12' W 127°52'159283.4
2017-Mar-16 15:00N 53°30' W 130°00'169386.4 130 / 71011.4 2.9 0.7
2017-Mar-16 14:33N 51°01' W 127°47'169301.9
2017-Mar-16 14:00N 53°30' W 130°00'179408.7 140 / 81010.8 3.1 1.3
2017-Mar-16 13:33N 50°54' W 127°37'179318.6
2017-Mar-16 13:00N 53°30' W 130°00'188428.1 150 / 111009.9 3.0 0.9
2017-Mar-16 12:33N 50°49' W 127°23'188334.9
2017-Mar-16 12:00N 53°30' W 130°00'0 0.0 120 / 71009.3 2.6 0.4
2017-Mar-16 11:00N 53°30' W 130°00'0 0.0 130 / 101008.4 3.0 1.9
2017-Mar-16 10:00N 53°30' W 130°00'0 0.0 130 / 91007.6 2.4 1.5
2017-Mar-16 09:00N 53°30' W 130°00'0 0.0 140 / 141007.0 2.2 1.7
2017-Mar-16 08:00N 53°30' W 130°00'0 0.0 130 / 201006.4 1.6 1.1
2017-Mar-16 07:00N 53°30' W 130°00'0 0.0 140 / 211005.8 1.8 1.2
2017-Mar-16 06:00N 53°30' W 130°00'   150 / 181005.5 2.8 1.6
Track history (hours):
 
Tides and Currents Weather Stations Pressure Air Temp Water Temp Dewpoint Dewpoint Depression Visibility Wind Speed Wind Dir Waves Ship Positions

Oceanographic research ship John P. Tully (Canada)

Detailed information on ship capabilities available from University of Delaware's Ocean Information Center.

Last reported at 2017-Mar-26 06:00 UTC. Time now 2017-Mar-26 07:14 UTC.
Position N 50°30' W 126°36'.

Length 68.9 m; beam 14.5 m; draft 4.5 m.

MMSI: 316114000.

Wind from 130 at 6 knots

Barometer 1013.4 mb
Air temperature 7.1 ° C
Dewpoint 0.4 ° C

Date/timePositionNaut miles runAvg speedWind from/ knotsBaromVisibWave heightAir tempDewpointWater temp
2017-Mar-26 06:00N 50°30' W 126°36'7 7.1 130 / 61013.4 7.1 0.4
2017-Mar-26 05:00N 50°36' W 126°42'713.8 110 / 121013.9 6.7 1.7
2017-Mar-26 04:31N 50°40' W 126°51'3 5.9
2017-Mar-26 04:00N 50°42' W 126°54'816.6 080 / 151014.2 6.1 3.3
2017-Mar-26 03:32N 50°43' W 127°06'4 7.5
2017-Mar-26 03:00N 50°42' W 127°12'716.6 150 / 131015.2 7.0 1.0
2017-Mar-26 02:33N 50°46' W 127°22'611.1
2017-Mar-26 02:00N 50°42' W 127°30'2 4.4 110 / 21016.4 5.9 3.3
2017-Mar-26 01:32N 50°43' W 127°28'2 3.7
2017-Mar-26 01:00N 50°42' W 127°30'2 4.4 100 / 11016.7 6.5 2.9
2017-Mar-26 00:32N 50°43' W 127°28'2 3.7
2017-Mar-26 00:00N 50°42' W 127°30'2 4.4 110 / 21017.2 6.8 2.3
2017-Mar-25 23:32N 50°43' W 127°28'2 3.7
2017-Mar-25 23:00N 50°42' W 127°30'2 4.4 100 / 21017.6 6.6 3.6
2017-Mar-25 22:32N 50°43' W 127°28'2 3.7
2017-Mar-25 22:00N 50°42' W 127°30'2 2.2 090 / 21018.3 4.9 2.1
2017-Mar-25 21:05N 50°43' W 127°28'222.0
2017-Mar-25 21:00N 50°42' W 127°30'1 2.9 180 / 31017.6 6.6 2.2
2017-Mar-25 20:29N 50°43' W 127°29'1 2.9
2017-Mar-25 20:00N 50°42' W 127°30'0 0.0 170 / 91017.4 7.1 1.2
2017-Mar-25 19:00N 50°42' W 127°30'0 0.0 170 / 61017.6 6.1 2.4
2017-Mar-25 18:00N 50°42' W 127°30'0 0.0 190 / 51017.4 5.2 3.3
2017-Mar-25 17:00N 50°42' W 127°30'0 0.0 170 / 41017.1 4.9 3.3
2017-Mar-25 16:00N 50°42' W 127°30'1 2.4 190 / 31016.7 4.0 3.3
2017-Mar-25 15:23N 50°43' W 127°29'1 3.6
2017-Mar-25 15:00N 50°42' W 127°30'3 5.9 260 / 41016.0 2.9 2.4
2017-Mar-25 14:32N 50°45' W 127°28'4 6.9
2017-Mar-25 14:00N 50°48' W 127°30'2 5.3 200 / 71015.7 3.8 2.1
2017-Mar-25 13:33N 50°47' W 127°27'2 3.8
2017-Mar-25 13:00N 50°48' W 127°24'1 2.3 200 / 101015.6 4.3 2.7
2017-Mar-25 12:33N 50°48' W 127°25'1 1.8
2017-Mar-25 12:00N 50°48' W 127°24'2 3.5 210 / 71014.6 4.1 2.3
2017-Mar-25 11:33N 50°47' W 127°26'2 2.8
2017-Mar-25 11:00N 50°48' W 127°24'1 2.8 200 / 141013.8 4.8 2.8
2017-Mar-25 10:33N 50°47' W 127°26'1 2.2
2017-Mar-25 10:00N 50°48' W 127°24'2 4.0 200 / 91013.0 5.5 4.3
2017-Mar-25 09:33N 50°49' W 127°26'5 9.6
2017-Mar-25 09:00N 50°54' W 127°30'511.2 230 / 61011.8 6.2 3.6
2017-Mar-25 08:33N 50°54' W 127°38'3 4.9
2017-Mar-25 08:00N 50°54' W 127°42'817.7 230 / 151009.4 6.4 4.4
2017-Mar-25 07:31N 51°02' W 127°47'4 8.2
2017-Mar-25 07:00N 51°06' W 127°48'511.7 260 / 171007.9 6.8 4.8
2017-Mar-25 06:33N 51°10' W 127°52'813.7
2017-Mar-25 06:00N 51°18' W 127°54'2 3.5 220 / 181005.8 6.7 5.3
2017-Mar-25 05:33N 51°19' W 127°52'5 8.9
2017-Mar-25 05:00N 51°24' W 127°54'3 6.2 190 / 181005.1 7.2 6.5
2017-Mar-25 04:31N 51°27' W 127°51'4 7.4
2017-Mar-25 04:00N 51°30' W 127°54'6 6.0 200 / 201004.1 7.2 6.7
2017-Mar-25 03:00N 51°36' W 127°54'0 0.0 180 / 221003.0 7.3 6.7
2017-Mar-25 02:00N 51°36' W 127°54'6 6.0 170 / 261001.8 7.9 6.4
2017-Mar-25 01:00N 51°42' W 127°54'6 6.0 170 / 251000.7 7.9 6.2
2017-Mar-25 00:00N 51°48' W 127°54'6 6.0 160 / 21999.9 9.4 5.0
2017-Mar-24 23:00N 51°54' W 127°54'1212.0 180 / 12999.7 9.2 4.9
2017-Mar-24 22:00N 52°06' W 127°54'1212.0 360 / 15999.9 7.9 4.1
2017-Mar-24 21:00N 52°18' W 127°54'1111.0 310 / 2999.7 7.2 4.4
2017-Mar-24 20:00N 52°18' W 128°12'7 7.3 090 / 41000.0 6.8 5.0
2017-Mar-24 19:00N 52°18' W 128°24'9 9.5 110 / 91000.1 6.4 4.2
2017-Mar-24 18:00N 52°12' W 128°36'9 9.5 110 / 12999.5 7.0 4.2
2017-Mar-24 17:00N 52°18' W 128°48'7 7.0 110 / 12999.7 6.6 4.4
2017-Mar-24 16:00N 52°24' W 128°54'1212.0 090 / 11999.3 6.4 4.4
2017-Mar-24 15:00N 52°36' W 128°54'9 9.4 070 / 12999.6 6.4 3.9
2017-Mar-24 14:00N 52°42' W 129°06'1414.0 150 / 18999.5 7.7 4.3
2017-Mar-24 13:00N 52°54' W 129°18'9 9.4 080 / 13999.7 6.5 4.4
2017-Mar-24 12:00N 53°00' W 129°30'1312.5 110 / 151000.2 7.5 3.6
2017-Mar-24 11:00N 53°12' W 129°36'9 9.4 080 / 25999.9 5.4 3.3
2017-Mar-24 10:00N 53°18' W 129°48'7 7.0 090 / 221000.6 5.1 3.3
2017-Mar-24 09:00N 53°24' W 129°54'9 9.3 110 / 151001.4 4.9 2.8
2017-Mar-24 08:00N 53°30' W 130°06'9 9.3 130 / 141001.5 4.7 2.9
2017-Mar-24 07:00N 53°36' W 130°18'9 9.3 110 / 131001.7 4.6 3.5
2017-Mar-24 06:00N 53°42' W 130°30'9 9.3 070 / 141002.0 5.1 3.4
2017-Mar-24 05:00N 53°48' W 130°42'9 9.3 060 / 151003.5 4.4 2.9
2017-Mar-24 04:00N 53°54' W 130°54'9 9.3 060 / 151004.3 4.3 2.3
2017-Mar-24 03:00N 54°00' W 131°06'7 7.0 070 / 181005.1 5.4 2.5
2017-Mar-24 02:00N 54°06' W 131°12'9 9.2 100 / 201005.4 5.9 1.8
2017-Mar-24 01:00N 54°12' W 131°24'1212.1 100 / 121006.6 6.0 2.4
2017-Mar-24 00:00N 54°18' W 131°42'7 7.0 110 / 151007.2 5.3 3.1
2017-Mar-23 23:00N 54°18' W 131°54'1110.5 130 / 171007.4 5.7 2.8
2017-Mar-23 22:00N 54°18' W 132°12'1110.5 120 / 151007.7 5.8 2.1
2017-Mar-23 21:00N 54°18' W 132°30'9 9.2 120 / 131008.1 5.3 1.4
2017-Mar-23 20:00N 54°24' W 132°42'7 7.0 140 / 161007.9 4.7 1.1
2017-Mar-23 19:00N 54°24' W 132°54'1413.9 130 / 111008.2 5.2 1.5
2017-Mar-23 18:00N 54°12' W 132°42'7 7.0 140 / 101008.0 4.4 1.4
2017-Mar-23 17:00N 54°12' W 132°30'1110.5 170 / 71007.9 3.1 0.3
2017-Mar-23 16:00N 54°12' W 132°12'1110.5 180 / 91007.5 2.4 0.7
2017-Mar-23 15:00N 54°12' W 131°54'7 7.0 210 / 71007.3 2.5 0.6
2017-Mar-23 14:00N 54°06' W 131°48'0 0.0 200 / 71007.0 1.8 1.1
2017-Mar-23 13:00N 54°06' W 131°48'0 0.0 200 / 61006.3 2.6 2.0
2017-Mar-23 12:00N 54°06' W 131°48'0 0.0 140 / 31005.8 2.3 1.6
2017-Mar-23 11:00N 54°06' W 131°48'0 0.0 130 / 71005.3 2.6 1.5
2017-Mar-23 10:00N 54°06' W 131°48'0 0.0 140 / 91004.8 3.0 1.9
2017-Mar-23 09:00N 54°06' W 131°48'0 0.0 130 / 61004.4 3.7 1.9
2017-Mar-23 08:00N 54°06' W 131°48'0 0.0 130 / 51004.0 3.6 1.6
2017-Mar-23 07:00N 54°06' W 131°48'0 0.0 170 / 81003.6 3.4 0.6
2017-Mar-23 06:00N 54°06' W 131°48'0 0.0 160 / 71003.3 3.6 1.2
2017-Mar-23 05:00N 54°06' W 131°48'0 0.0 140 / 101002.9 3.2 1.2
2017-Mar-23 04:00N 54°06' W 131°48'0 0.0 160 / 141002.4 3.5 1.2
2017-Mar-23 03:00N 54°06' W 131°48'1312.5 170 / 151001.4 4.6 1.4
2017-Mar-23 02:00N 54°18' W 131°42'7 6.9 190 / 91000.8 3.9 2.1
2017-Mar-23 01:00N 54°24' W 131°36'0 0.0 220 / 161000.2 4.2 2.5
2017-Mar-23 00:00N 54°24' W 131°36'7 6.9 140 / 161000.2 5.4 3.6
2017-Mar-22 23:00N 54°18' W 131°30'0 0.0 160 / 101000.3 4.9 2.7
2017-Mar-22 22:00N 54°18' W 131°30'0 0.0 140 / 9999.8 5.3 3.8
2017-Mar-22 21:00N 54°18' W 131°30'4 3.5 150 / 71000.0 5.1 2.9
2017-Mar-22 20:00N 54°18' W 131°24'4 3.5 160 / 8999.4 4.1 2.6
2017-Mar-22 19:00N 54°18' W 131°18'7 6.9 160 / 7999.2 3.8 2.4
2017-Mar-22 18:00N 54°12' W 131°12'9 9.2 100 / 5998.9 3.1 1.8
2017-Mar-22 17:00N 54°06' W 131°00'1413.9 280 / 1998.7 3.1 1.9
2017-Mar-22 16:00N 53°54' W 130°48'4 3.5 340 / 2998.4 2.6 1.9
2017-Mar-22 15:00N 53°54' W 130°42'4 3.5 290 / 4998.3 3.0 1.9
2017-Mar-22 14:00N 53°54' W 130°48'4 3.5 320 / 6998.2 3.1 1.8
2017-Mar-22 13:00N 53°54' W 130°54'6 6.0 310 / 2998.2 3.3 1.9
2017-Mar-22 12:00N 53°48' W 130°54'7 7.0 020 / 2998.5 3.7 2.6
2017-Mar-22 11:00N 53°42' W 130°48'6 6.0 070 / 5998.9 4.1 3.2
2017-Mar-22 10:00N 53°36' W 130°48'7 7.0 080 / 5999.3 4.0 3.1
2017-Mar-22 09:00N 53°30' W 130°42'1212.0 050 / 5999.3 3.8 2.9
2017-Mar-22 08:00N 53°18' W 130°42'7 7.0 050 / 7999.6 3.9 2.8
2017-Mar-22 07:00N 53°12' W 130°36'7 7.0 050 / 61000.0 4.2 2.4
2017-Mar-22 06:00N 53°06' W 130°30'1212.0 060 / 71000.2 4.3 2.7
2017-Mar-22 05:00N 52°54' W 130°30'7 7.0 050 / 91000.0 4.4 2.8
2017-Mar-22 04:00N 52°48' W 130°36'7 7.0 060 / 71000.6 4.4 2.8
2017-Mar-22 03:00N 52°42' W 130°42'7 7.0 040 / 81000.7 4.3 2.2
2017-Mar-22 02:00N 52°36' W 130°48'1312.5 050 / 101000.8 4.3 2.5
2017-Mar-22 01:00N 52°24' W 130°54'1111.0 060 / 81001.5 4.3 2.4
2017-Mar-22 00:00N 52°24' W 131°12'6 6.0 110 / 81002.2 5.2 2.7
2017-Mar-21 23:00N 52°18' W 131°12'0 0.0 360 / 81002.4 5.4 3.3
2017-Mar-21 22:00N 52°18' W 131°12'7 7.3 360 / 71003.0 5.3 3.0
2017-Mar-21 21:00N 52°18' W 131°00'7 7.0 360 / 131002.9 5.2 3.5
2017-Mar-21 20:00N 52°12' W 130°54'6 6.0 350 / 161002.7 5.2 3.5
2017-Mar-21 19:00N 52°06' W 130°54'6 6.0 360 / 201003.1 5.1 3.4
2017-Mar-21 18:00N 52°12' W 130°54'0 0.0 010 / 171003.9 5.2 3.4
2017-Mar-21 17:00N 52°12' W 130°54'7 7.0 350 / 191004.3 5.4 3.8
2017-Mar-21 16:00N 52°06' W 130°48'0 0.0 350 / 221004.0 5.5 3.8
2017-Mar-21 15:00N 52°06' W 130°48'0 0.0 350 / 201005.3 5.6 4.1
2017-Mar-21 14:00N 52°06' W 130°48'0 0.0 350 / 211005.9 5.5 3.9
2017-Mar-21 13:00N 52°06' W 130°48'0 0.0 360 / 201007.1 5.5 4.1
2017-Mar-21 12:00N 52°06' W 130°48'7 7.0 350 / 191007.9 5.6 4.2
2017-Mar-21 11:00N 52°12' W 130°42'4 3.7 360 / 161009.0 6.3 3.9
2017-Mar-21 10:00N 52°12' W 130°36'7 7.0 360 / 131010.2 6.4 3.7
2017-Mar-21 09:00N 52°18' W 130°30'0 0.0 360 / 131010.8 6.5 3.8
2017-Mar-21 08:00N 52°18' W 130°30'0 0.0 360 / 141011.4 6.3 2.7
2017-Mar-21 07:00N 52°18' W 130°30'0 0.0 350 / 171011.9 6.1 2.1
2017-Mar-21 06:00N 52°18' W 130°30'0 0.0 350 / 171012.8 6.0 1.1
2017-Mar-21 05:00N 52°18' W 130°30'0 0.0 350 / 161013.1 5.9 1.6
2017-Mar-21 04:00N 52°18' W 130°30'6 6.0 350 / 161013.7 5.8 1.1
2017-Mar-21 03:00N 52°12' W 130°30'7 7.0 360 / 151013.7 5.8 1.2
2017-Mar-21 02:00N 52°06' W 130°36'1212.0 360 / 161014.1 5.7 1.1
2017-Mar-21 01:00N 51°54' W 130°36'0 0.0 010 / 191014.3 5.7 1.6
2017-Mar-21 00:00N 51°54' W 130°36'4 3.7 010 / 171015.9 6.2 2.0
2017-Mar-20 23:00N 51°54' W 130°42'10 9.5 020 / 201015.9 5.5 1.5
2017-Mar-20 22:00N 51°48' W 130°54'7 7.1 020 / 191017.6 5.8 2.0
2017-Mar-20 21:00N 51°54' W 130°48'6 6.0 020 / 151018.8 5.6 1.6
2017-Mar-20 20:00N 52°00' W 130°48'1212.0 010 / 141019.9 5.5 0.9
2017-Mar-20 19:00N 52°12' W 130°48'7 7.0 010 / 121020.7 5.3 1.2
2017-Mar-20 18:00N 52°18' W 130°54'1414.1 030 / 121021.3 5.1 1.1
2017-Mar-20 17:00N 52°30' W 131°06'7 7.0 030 / 111022.1 4.9 1.8
2017-Mar-20 16:00N 52°36' W 131°12'7 7.0 060 / 111022.7 5.1 0.8
2017-Mar-20 15:00N 52°42' W 131°18'4 3.6 050 / 101023.5 4.2 1.9
2017-Mar-20 14:00N 52°42' W 131°12'7 7.3 350 / 111023.9 4.8 2.9
2017-Mar-20 13:00N 52°42' W 131°00'4 3.6 080 / 21024.6 5.3 0.7
2017-Mar-20 12:00N 52°42' W 130°54'7 7.3 130 / 41025.3 5.4 0.4
2017-Mar-20 11:00N 52°42' W 130°42'7 7.0 120 / 71025.9 5.3 1.3
2017-Mar-20 10:00N 52°48' W 130°36'6 6.0 110 / 111026.1 5.2 1.1
2017-Mar-20 09:00N 52°54' W 130°36'4 3.6 150 / 81026.4 5.6 0.4
2017-Mar-20 08:00N 52°54' W 130°30'1212.0 160 / 91026.6 5.6 0.8
2017-Mar-20 07:00N 53°06' W 130°30'4 3.6 180 / 121026.7 5.9 1.6
2017-Mar-20 06:00N 53°06' W 130°36'6 6.0 160 / 81026.6 5.9 1.4
2017-Mar-20 05:00N 53°12' W 130°36'7 7.0 170 / 81026.4 5.8 1.4
2017-Mar-20 04:00N 53°18' W 130°42'6 6.0 210 / 71026.2 5.7 1.6
2017-Mar-20 03:00N 53°24' W 130°42'1212.0 240 / 81025.8 5.2 2.4
2017-Mar-20 02:00N 53°36' W 130°42'7 7.1 140 / 141024.8 5.5 1.6
2017-Mar-20 01:00N 53°36' W 130°54'7 7.1 190 / 171025.1 5.8 2.4
2017-Mar-20 00:00N 53°36' W 131°06'9 9.3 140 / 141025.2 6.5 1.8
2017-Mar-19 23:00N 53°30' W 130°54'9 9.3 150 / 131025.2 6.9 1.1
2017-Mar-19 22:00N 53°24' W 130°42'1414.0 150 / 111025.1 6.2 0.4
2017-Mar-19 21:00N 53°12' W 130°30'9 9.4 160 / 91025.0 5.8 0.3
2017-Mar-19 20:00N 53°06' W 130°18'9 9.4 160 / 41024.4 5.3-0.4
2017-Mar-19 19:00N 53°00' W 130°06'9 9.4 090 / 51023.8 5.1 1.1
2017-Mar-19 18:00N 52°54' W 129°54'7 7.0 350 / 21022.8 5.0-0.4
2017-Mar-19 17:00N 52°48' W 129°48'4 3.6 320 / 71021.5 5.1 0.4
2017-Mar-19 16:00N 52°48' W 129°42'9 9.4 300 / 101020.1 5.0 0.7
2017-Mar-19 15:00N 52°54' W 129°30'4 3.6 290 / 151018.6 4.7 0.5
2017-Mar-19 14:00N 52°54' W 129°24'7 7.0 300 / 171017.2 4.0 1.5
2017-Mar-19 13:00N 53°00' W 129°18'7 7.0 280 / 161015.4 3.9 1.6
2017-Mar-19 12:00N 53°06' W 129°12'7 7.0 220 / 231013.0 5.6 0.5
2017-Mar-19 11:00N 53°12' W 129°06'6 6.0 200 / 221012.3 5.2 1.2
2017-Mar-19 10:00N 53°18' W 129°06'7 7.0 170 / 101012.0 3.8 1.3
2017-Mar-19 09:00N 53°24' W 129°12'0 0.0 200 / 161011.0 3.0 1.1
2017-Mar-19 08:00N 53°24' W 129°12'0 0.0 170 / 171011.1 3.9 0.8
2017-Mar-19 07:00N 53°24' W 129°12'0 0.0 160 / 161011.4 3.6 1.1
2017-Mar-19 06:00N 53°24' W 129°12'0 0.0 180 / 161010.5 3.5 1.1
2017-Mar-19 05:00N 53°24' W 129°12'0 0.0 160 / 191009.9 2.2 1.3
2017-Mar-19 04:00N 53°24' W 129°12'0 0.0 160 / 191009.3 1.7 1.2
2017-Mar-19 03:00N 53°24' W 129°12'0 0.0 180 / 161009.3 4.2-1.3
2017-Mar-19 02:00N 53°24' W 129°12'6 6.0 190 / 151009.0 4.4-0.7
2017-Mar-19 01:00N 53°18' W 129°12'7 7.2 170 / 121008.8 4.6 0.3
2017-Mar-19 00:00N 53°18' W 129°00'7 7.0 010 / 41008.6 2.8 0.6
2017-Mar-18 23:00N 53°24' W 128°54'6 6.0 160 / 181005.8 2.8 0.6
2017-Mar-18 22:00N 53°30' W 128°54'4 3.6 020 / 41007.1 2.1 0.6
2017-Mar-18 21:00N 53°30' W 128°48'0 0.0 330 / 21006.5 2.2 1.3
2017-Mar-18 20:00N 53°30' W 128°48'0 0.0 150 / 11005.8 2.3 0.7
2017-Mar-18 19:00N 53°30' W 128°48'0 0.0 1005.6 2.5 0.8
2017-Mar-18 18:00N 53°30' W 128°48'4 3.6 070 / 21005.4 1.2 0.5
2017-Mar-18 17:00N 53°30' W 128°54'7 7.1 260 / 31004.6 1.6 0.4
2017-Mar-18 16:00N 53°30' W 129°06'7 7.0 300 / 61003.9 1.4-0.4
2017-Mar-18 15:00N 53°24' W 129°12'0 0.0 110 / 71003.6 2.6-0.7
2017-Mar-18 14:00N 53°24' W 129°12'0 0.0 180 / 101003.7 2.7 0.2
2017-Mar-18 13:00N 53°24' W 129°12'0 0.0 180 / 101003.4 2.3 0.6
2017-Mar-18 12:00N 53°24' W 129°12'0 0.0 170 / 101003.1 1.5 0.7
2017-Mar-18 11:00N 53°24' W 129°12'0 0.0 160 / 111003.0 1.8 0.3
2017-Mar-18 10:00N 53°24' W 129°12'0 0.0 170 / 31003.3 2.7 0.1
2017-Mar-18 09:00N 53°24' W 129°12'0 0.0 160 / 61003.8 2.7 0.1
2017-Mar-18 08:00N 53°24' W 129°12'0 0.0 280 / 31004.1 1.5 0.5
2017-Mar-18 07:00N 53°24' W 129°12'0 0.0 220 / 31004.1 1.4 0.4
2017-Mar-18 06:00N 53°24' W 129°12'0 0.0 170 / 71004.2 1.7 0.1
2017-Mar-18 05:00N 53°24' W 129°12'0 0.0 200 / 51004.5 1.2 0.7
2017-Mar-18 04:00N 53°24' W 129°12'0 0.0 150 / 31004.7 1.1 0.1
2017-Mar-18 03:00N 53°24' W 129°12'6 6.0 160 / 151004.7 2.0 0.7
2017-Mar-18 02:00N 53°18' W 129°12'7 7.0 140 / 131005.0 3.8 0.3
2017-Mar-18 01:00N 53°12' W 129°06'6 6.0 100 / 131005.4 1.8 1.0
2017-Mar-18 00:00N 53°18' W 129°06'6 6.0 050 / 21005.7 2.1 1.0
2017-Mar-17 23:00N 53°12' W 129°06'7 7.0 210 / 121005.8 1.9 0.8
2017-Mar-17 22:00N 53°06' W 129°12'1312.5 160 / 161006.0 4.3 1.6
2017-Mar-17 21:00N 52°54' W 129°18'9 9.4 150 / 121006.6 3.7 2.3
2017-Mar-17 20:00N 53°00' W 129°30'1312.5 160 / 111007.0 2.6 2.0
2017-Mar-17 19:00N 53°12' W 129°36'7 7.0 190 / 81006.4 1.6 1.2
2017-Mar-17 18:00N 53°18' W 129°42'9 9.3 130 / 101006.6 3.6 1.4
2017-Mar-17 17:00N 53°24' W 129°54'7 7.0 150 / 131006.3 2.9 1.1
2017-Mar-17 16:00N 53°30' W 130°00'0 0.0 130 / 101007.4 2.8 1.4
2017-Mar-17 15:00N 53°30' W 130°00'0 0.0 120 / 91007.1 2.7 1.4
2017-Mar-17 14:00N 53°30' W 130°00'0 0.0 150 / 71006.9 2.9 1.6
2017-Mar-17 13:00N 53°30' W 130°00'0 0.0 170 / 41006.9 2.5 1.3
2017-Mar-17 12:00N 53°30' W 130°00'0 0.0 160 / 101006.7 4.4 1.8
2017-Mar-17 11:00N 53°30' W 130°00'0 0.0 140 / 141006.9 3.9 2.4
2017-Mar-17 10:00N 53°30' W 130°00'0 0.0 140 / 141007.4 3.0 1.8
2017-Mar-17 09:00N 53°30' W 130°00'0 0.0 140 / 161008.1 4.1 2.4
2017-Mar-17 08:00N 53°30' W 130°00'0 0.0 160 / 131009.5 3.6 2.2
2017-Mar-17 07:00N 53°30' W 130°00'0 0.0 130 / 221008.9 3.1 2.0
2017-Mar-17 06:00N 53°30' W 130°00'0 0.0 120 / 171009.7 2.6 1.6
2017-Mar-17 05:00N 53°30' W 130°00'0 0.0 150 / 151010.0 2.5 1.7
2017-Mar-17 04:00N 53°30' W 130°00'0 0.0 140 / 121010.6 3.2 2.3
2017-Mar-17 03:00N 53°30' W 130°00'0 0.0 170 / 81011.2 2.1 1.6
2017-Mar-17 02:00N 53°30' W 130°00'0 0.0 110 / 91011.3 1.4 1.0
2017-Mar-17 01:00N 53°30' W 130°00'0 0.0 170 / 111012.0 3.0 2.0
2017-Mar-17 00:00N 53°30' W 130°00'0 0.0 130 / 191012.7 2.3 1.3
2017-Mar-16 23:00N 53°30' W 130°00'0 0.0 150 / 161013.3 3.3 1.9
2017-Mar-16 22:00N 53°30' W 130°00'0 0.0 120 / 131013.5 4.0 1.1
2017-Mar-16 21:00N 53°30' W 130°00'0 0.0 140 / 241014.1 3.6 1.3
2017-Mar-16 20:00N 53°30' W 130°00'0 0.0 110 / 91014.3 3.4 1.5
2017-Mar-16 19:00N 53°30' W 130°00'0 0.0 130 / 181013.7 3.9 1.2
2017-Mar-16 18:00N 53°30' W 130°00'145190.2 120 / 81013.6 3.9 1.6
2017-Mar-16 17:14N 51°29' W 127°51'145605.0
2017-Mar-16 17:00N 53°30' W 130°00'153181.6 130 / 121013.0 3.1 1.2
2017-Mar-16 16:09N 51°18' W 127°53'153983.8
2017-Mar-16 16:00N 53°30' W 130°00'159362.3 140 / 91012.3 3.2 1.2
2017-Mar-16 15:33N 51°12' W 127°52'159283.4
2017-Mar-16 15:00N 53°30' W 130°00'169386.4 130 / 71011.4 2.9 0.7
2017-Mar-16 14:33N 51°01' W 127°47'169301.9
2017-Mar-16 14:00N 53°30' W 130°00'179408.7 140 / 81010.8 3.1 1.3
2017-Mar-16 13:33N 50°54' W 127°37'179318.6
2017-Mar-16 13:00N 53°30' W 130°00'188428.1 150 / 111009.9 3.0 0.9
2017-Mar-16 12:33N 50°49' W 127°23'188334.9
2017-Mar-16 12:00N 53°30' W 130°00'0 0.0 120 / 71009.3 2.6 0.4
2017-Mar-16 11:00N 53°30' W 130°00'0 0.0 130 / 101008.4 3.0 1.9
2017-Mar-16 10:00N 53°30' W 130°00'0 0.0 130 / 91007.6 2.4 1.5
2017-Mar-16 09:00N 53°30' W 130°00'0 0.0 140 / 141007.0 2.2 1.7
2017-Mar-16 08:00N 53°30' W 130°00'0 0.0 130 / 201006.4 1.6 1.1
2017-Mar-16 07:00N 53°30' W 130°00'0 0.0 140 / 211005.8 1.8 1.2
2017-Mar-16 06:00N 53°30' W 130°00'   150 / 181005.5 2.8 1.6

Dump ship's entire track history